Time,TemperatureF,DewpointF,PressureIn,WindDirection,WindDirectionDegrees,WindSpeedMPH,WindSpeedGustMPH,Humidity,HourlyPrecipIn,Conditions,Clouds,dailyrainin,SoftwareType,DateUTC
2013-03-17 00:00:00,64.7,48.7,29.89,West,265,0.0,0.0,56,0.00,,---,0.00,VWS V14.01,2013-03-17 04:00:00,
2013-03-17 00:05:00,64.6,48.1,29.90,WSW,248,0.0,0.0,55,0.00,,---,0.00,VWS V14.01,2013-03-17 04:05:00,
2013-03-17 00:10:00,64.6,48.1,29.90,WSW,248,0.0,0.0,55,0.00,,---,0.00,VWS V14.01,2013-03-17 04:10:00,
2013-03-17 00:15:00,64.6,48.1,29.90,WSW,248,0.0,0.0,55,0.00,,---,0.00,VWS V14.01,2013-03-17 04:15:00,
2013-03-17 00:20:00,64.6,48.1,29.90,WSW,248,0.0,0.0,55,0.00,,---,0.00,VWS V14.01,2013-03-17 04:20:00,
2013-03-17 00:25:00,64.6,48.1,29.90,WSW,248,0.0,0.0,55,0.00,,---,0.00,VWS V14.01,2013-03-17 04:25:00,
2013-03-17 00:30:00,64.6,48.1,29.90,WSW,248,0.0,0.0,55,0.00,,---,0.00,VWS V14.01,2013-03-17 04:30:00,
2013-03-17 00:35:00,64.6,48.1,29.90,WSW,248,0.0,0.0,55,0.00,,---,0.00,VWS V14.01,2013-03-17 04:35:00,
2013-03-17 00:40:00,64.6,48.1,29.90,WSW,248,0.0,0.0,55,0.00,,---,0.00,VWS V14.01,2013-03-17 04:40:00,
2013-03-17 00:45:00,64.6,48.1,29.90,WSW,248,0.0,0.0,55,0.00,,---,0.00,VWS V14.01,2013-03-17 04:45:00,
2013-03-17 00:50:00,64.6,48.1,29.90,WSW,248,0.0,0.0,55,0.00,,---,0.00,VWS V14.01,2013-03-17 04:50:00,
2013-03-17 00:55:00,64.7,46.7,29.90,WSW,247,0.0,0.0,52,0.00,,---,0.00,VWS V14.01,2013-03-17 04:55:00,
2013-03-17 01:00:00,64.6,46.6,29.90,WSW,257,0.0,0.0,52,0.00,,---,0.00,VWS V14.01,2013-03-17 05:00:00,
2013-03-17 01:05:00,64.6,46.6,29.90,WSW,257,0.0,0.0,52,0.00,,---,0.00,VWS V14.01,2013-03-17 05:05:00,
2013-03-17 01:10:00,64.6,46.6,29.90,WSW,257,0.0,0.0,52,0.00,,---,0.00,VWS V14.01,2013-03-17 05:10:00,
2013-03-17 01:15:00,64.6,46.6,29.90,WSW,257,0.0,0.0,52,0.00,,---,0.00,VWS V14.01,2013-03-17 05:15:00,
2013-03-17 01:20:00,64.6,46.6,29.90,WSW,257,0.0,0.0,52,0.00,,---,0.00,VWS V14.01,2013-03-17 05:20:00,
2013-03-17 01:25:00,64.6,46.6,29.90,WSW,257,0.0,0.0,52,0.00,,---,0.00,VWS V14.01,2013-03-17 05:25:00,
2013-03-17 01:30:00,64.1,46.1,29.91,West,262,0.0,0.0,52,0.00,,---,0.00,VWS V14.01,2013-03-17 05:30:00,
2013-03-17 01:35:00,64.1,46.1,29.91,West,262,0.0,0.0,52,0.00,,---,0.00,VWS V14.01,2013-03-17 05:35:00,
2013-03-17 01:40:00,64.1,46.1,29.91,West,262,0.0,0.0,52,0.00,,---,0.00,VWS V14.01,2013-03-17 05:40:00,
2013-03-17 01:45:00,64.1,46.1,29.91,West,262,0.0,0.0,52,0.00,,---,0.00,VWS V14.01,2013-03-17 05:45:00,
2013-03-17 01:50:00,64.1,46.1,29.91,West,262,0.0,0.0,52,0.00,,---,0.00,VWS V14.01,2013-03-17 05:50:00,
2013-03-17 01:55:00,64.1,46.1,29.91,West,262,0.0,0.0,52,0.00,,---,0.00,VWS V14.01,2013-03-17 05:55:00,
2013-03-17 02:00:00,64.1,46.1,29.91,West,262,0.0,0.0,52,0.00,,---,0.00,VWS V14.01,2013-03-17 06:00:00,
2013-03-17 02:05:00,64.1,46.1,29.91,West,262,0.0,0.0,52,0.00,,---,0.00,VWS V14.01,2013-03-17 06:05:00,
2013-03-17 02:10:00,64.1,46.1,29.91,West,262,0.0,0.0,52,0.00,,---,0.00,VWS V14.01,2013-03-17 06:10:00,
2013-03-17 02:15:00,64.1,46.1,29.91,West,262,0.0,0.0,52,0.00,,---,0.00,VWS V14.01,2013-03-17 06:15:00,
2013-03-17 02:20:00,64.1,46.1,29.91,West,262,0.0,0.0,52,0.00,,---,0.00,VWS V14.01,2013-03-17 06:20:00,
2013-03-17 02:25:00,64.1,46.1,29.91,West,262,0.0,0.0,52,0.00,,---,0.00,VWS V14.01,2013-03-17 06:25:00,
2013-03-17 02:30:00,64.1,46.1,29.91,West,262,0.0,0.0,52,0.00,,---,0.00,VWS V14.01,2013-03-17 06:30:00,
2013-03-17 02:35:00,64.1,46.1,29.91,West,262,0.0,0.0,52,0.00,,---,0.00,VWS V14.01,2013-03-17 06:35:00,
2013-03-17 02:40:00,64.1,46.1,29.91,West,262,0.0,0.0,52,0.00,,---,0.00,VWS V14.01,2013-03-17 06:40:00,
2013-03-17 02:45:00,63.2,46.3,29.91,WSW,250,0.0,0.0,54,0.00,,---,0.00,VWS V14.01,2013-03-17 06:45:00,
2013-03-17 02:50:00,63.2,46.3,29.91,WSW,250,0.0,0.0,54,0.00,,---,0.00,VWS V14.01,2013-03-17 06:50:00,
2013-03-17 02:55:00,63.2,46.3,29.91,WSW,250,0.0,0.0,54,0.00,,---,0.00,VWS V14.01,2013-03-17 06:55:00,
2013-03-17 03:00:00,61.8,47.3,29.92,WSW,242,0.0,0.0,59,0.00,,---,0.00,VWS V14.01,2013-03-17 07:00:00,
2013-03-17 03:05:00,61.8,47.3,29.92,WSW,242,0.0,0.0,59,0.00,,---,0.00,VWS V14.01,2013-03-17 07:05:00,
2013-03-17 03:10:00,61.8,47.3,29.92,WSW,242,0.0,0.0,59,0.00,,---,0.00,VWS V14.01,2013-03-17 07:10:00,
2013-03-17 03:14:00,61.8,47.3,29.92,WSW,242,0.0,0.0,59,0.00,,---,0.00,VWS V14.01,2013-03-17 07:14:00,
2013-03-17 03:19:00,61.8,47.3,29.92,WSW,242,0.0,0.0,59,0.00,,---,0.00,VWS V14.01,2013-03-17 07:19:00,
2013-03-17 03:24:00,61.8,47.3,29.92,WSW,242,0.0,0.0,59,0.00,,---,0.00,VWS V14.01,2013-03-17 07:24:00,
2013-03-17 03:29:00,61.8,47.3,29.92,WSW,242,0.0,0.0,59,0.00,,---,0.00,VWS V14.01,2013-03-17 07:29:00,
2013-03-17 03:34:00,61.8,46.9,29.91,WNW,294,0.0,0.0,58,0.00,,---,0.00,VWS V14.01,2013-03-17 07:34:00,
2013-03-17 03:39:00,61.8,46.9,29.91,WNW,294,0.0,0.0,58,0.00,,---,0.00,VWS V14.01,2013-03-17 07:39:00,
2013-03-17 03:44:00,61.8,46.9,29.91,WNW,294,0.0,0.0,58,0.00,,---,0.00,VWS V14.01,2013-03-17 07:44:00,
2013-03-17 03:49:00,61.8,46.9,29.91,WNW,294,0.0,0.0,58,0.00,,---,0.00,VWS V14.01,2013-03-17 07:49:00,
2013-03-17 03:54:00,61.8,46.9,29.91,WNW,294,0.0,0.0,58,0.00,,---,0.00,VWS V14.01,2013-03-17 07:54:00,
2013-03-17 03:59:00,61.8,46.9,29.91,WNW,294,0.0,0.0,58,0.00,,---,0.00,VWS V14.01,2013-03-17 07:59:00,
2013-03-17 04:04:00,61.8,46.9,29.91,WNW,294,0.0,0.0,58,0.00,,---,0.00,VWS V14.01,2013-03-17 08:04:00,
2013-03-17 04:09:00,61.8,46.9,29.91,WNW,294,0.0,0.0,58,0.00,,---,0.00,VWS V14.01,2013-03-17 08:09:00,
2013-03-17 04:14:00,61.8,46.9,29.91,WNW,294,0.0,0.0,58,0.00,,---,0.00,VWS V14.01,2013-03-17 08:14:00,
2013-03-17 04:19:00,61.8,46.9,29.91,WNW,294,0.0,0.0,58,0.00,,---,0.00,VWS V14.01,2013-03-17 08:19:00,
2013-03-17 04:24:00,61.8,46.9,29.91,WNW,294,0.0,0.0,58,0.00,,---,0.00,VWS V14.01,2013-03-17 08:24:00,
2013-03-17 04:29:00,61.8,46.9,29.91,WNW,294,0.0,0.0,58,0.00,,---,0.00,VWS V14.01,2013-03-17 08:29:00,
2013-03-17 04:34:00,61.8,46.9,29.91,WNW,294,0.0,0.0,58,0.00,,---,0.00,VWS V14.01,2013-03-17 08:34:00,
2013-03-17 04:39:00,61.8,46.9,29.91,WNW,294,0.0,0.0,58,0.00,,---,0.00,VWS V14.01,2013-03-17 08:39:00,
2013-03-17 04:44:00,61.8,46.9,29.91,WNW,294,0.0,0.0,58,0.00,,---,0.00,VWS V14.01,2013-03-17 08:44:00,
2013-03-17 04:49:00,60.0,47.0,29.91,West,267,0.0,0.0,62,0.00,,---,0.00,VWS V14.01,2013-03-17 08:49:00,
2013-03-17 04:54:00,60.0,47.0,29.91,West,267,0.0,0.0,62,0.00,,---,0.00,VWS V14.01,2013-03-17 08:54:00,
2013-03-17 04:59:00,60.0,47.0,29.91,West,267,0.0,0.0,62,0.00,,---,0.00,VWS V14.01,2013-03-17 08:59:00,
2013-03-17 05:04:00,60.0,47.0,29.91,West,267,0.0,0.0,62,0.00,,---,0.00,VWS V14.01,2013-03-17 09:04:00,
2013-03-17 05:09:00,60.0,47.0,29.91,West,267,0.0,0.0,62,0.00,,---,0.00,VWS V14.01,2013-03-17 09:09:00,
2013-03-17 05:14:00,60.0,47.0,29.91,West,267,0.0,0.0,62,0.00,,---,0.00,VWS V14.01,2013-03-17 09:14:00,
2013-03-17 05:19:00,60.0,47.0,29.91,West,267,0.0,0.0,62,0.00,,---,0.00,VWS V14.01,2013-03-17 09:19:00,
2013-03-17 05:24:00,59.8,47.2,29.92,West,261,0.0,0.0,63,0.00,,---,0.00,VWS V14.01,2013-03-17 09:24:00,
2013-03-17 05:29:00,59.8,47.2,29.92,West,261,0.0,0.0,63,0.00,,---,0.00,VWS V14.01,2013-03-17 09:29:00,
2013-03-17 05:34:00,59.8,47.2,29.92,West,261,0.0,0.0,63,0.00,,---,0.00,VWS V14.01,2013-03-17 09:34:00,
2013-03-17 05:39:00,59.8,47.2,29.92,West,261,0.0,0.0,63,0.00,,---,0.00,VWS V14.01,2013-03-17 09:39:00,
2013-03-17 05:44:00,59.8,47.2,29.92,West,261,0.0,0.0,63,0.00,,---,0.00,VWS V14.01,2013-03-17 09:44:00,
2013-03-17 05:49:00,59.8,47.2,29.92,West,261,0.0,0.0,63,0.00,,---,0.00,VWS V14.01,2013-03-17 09:49:00,
2013-03-17 05:54:00,59.8,47.2,29.92,West,261,0.0,0.0,63,0.00,,---,0.00,VWS V14.01,2013-03-17 09:54:00,
2013-03-17 05:59:00,59.8,47.2,29.92,West,261,0.0,0.0,63,0.00,,---,0.00,VWS V14.01,2013-03-17 09:59:00,
2013-03-17 06:04:00,59.8,47.2,29.92,West,261,0.0,0.0,63,0.00,,---,0.00,VWS V14.01,2013-03-17 10:04:00,
2013-03-17 06:09:00,59.8,47.2,29.92,West,261,0.0,0.0,63,0.00,,---,0.00,VWS V14.01,2013-03-17 10:09:00,
2013-03-17 06:14:00,59.8,47.2,29.92,West,261,0.0,0.0,63,0.00,,---,0.00,VWS V14.01,2013-03-17 10:14:00,
2013-03-17 06:19:00,59.8,47.2,29.92,West,261,0.0,0.0,63,0.00,,---,0.00,VWS V14.01,2013-03-17 10:19:00,
2013-03-17 06:24:00,59.8,47.2,29.92,West,261,0.0,0.0,63,0.00,,---,0.00,VWS V14.01,2013-03-17 10:24:00,
2013-03-17 06:29:00,59.8,47.2,29.92,West,261,0.0,0.0,63,0.00,,---,0.00,VWS V14.01,2013-03-17 10:29:00,
2013-03-17 06:34:00,59.2,47.5,29.94,WSW,254,0.0,0.0,65,0.00,,---,0.00,VWS V14.01,2013-03-17 10:34:00,
2013-03-17 06:39:00,59.2,47.5,29.94,WSW,254,0.0,0.0,65,0.00,,---,0.00,VWS V14.01,2013-03-17 10:39:00,
2013-03-17 06:44:00,59.2,47.5,29.94,WSW,254,0.0,0.0,65,0.00,,---,0.00,VWS V14.01,2013-03-17 10:44:00,
2013-03-17 06:49:00,59.2,47.5,29.94,WSW,254,0.0,0.0,65,0.00,,---,0.00,VWS V14.01,2013-03-17 10:49:00,
2013-03-17 06:54:00,59.2,47.5,29.94,WSW,254,0.0,0.0,65,0.00,,---,0.00,VWS V14.01,2013-03-17 10:54:00,
2013-03-17 06:59:00,59.2,47.5,29.94,WSW,254,0.0,0.0,65,0.00,,---,0.00,VWS V14.01,2013-03-17 10:59:00,
2013-03-17 07:04:00,59.2,47.5,29.94,WSW,254,0.0,0.0,65,0.00,,---,0.00,VWS V14.01,2013-03-17 11:04:00,
2013-03-17 07:09:00,59.2,47.5,29.94,WSW,254,0.0,0.0,65,0.00,,---,0.00,VWS V14.01,2013-03-17 11:09:00,
2013-03-17 07:14:00,59.2,47.5,29.94,WSW,254,0.0,0.0,65,0.00,,---,0.00,VWS V14.01,2013-03-17 11:14:00,
2013-03-17 07:19:00,59.2,47.5,29.94,WSW,254,0.0,0.0,65,0.00,,---,0.00,VWS V14.01,2013-03-17 11:19:00,
2013-03-17 07:24:00,59.2,47.5,29.94,WSW,254,0.0,0.0,65,0.00,,---,0.00,VWS V14.01,2013-03-17 11:24:00,
2013-03-17 07:29:00,59.2,47.5,29.94,WSW,254,0.0,0.0,65,0.00,,---,0.00,VWS V14.01,2013-03-17 11:29:00,
2013-03-17 07:34:00,59.2,47.5,29.94,WSW,254,0.0,0.0,65,0.00,,---,0.00,VWS V14.01,2013-03-17 11:34:00,
2013-03-17 07:39:00,59.2,47.5,29.94,WSW,254,0.0,0.0,65,0.00,,---,0.00,VWS V14.01,2013-03-17 11:39:00,
2013-03-17 07:44:00,58.7,47.4,29.96,WSW,254,0.0,0.0,66,0.00,,---,0.00,VWS V14.01,2013-03-17 11:44:00,
2013-03-17 07:49:00,58.7,47.4,29.96,WSW,254,0.0,0.0,66,0.00,,---,0.00,VWS V14.01,2013-03-17 11:49:00,
2013-03-17 07:54:00,58.7,47.4,29.96,WSW,254,0.0,0.0,66,0.00,,---,0.00,VWS V14.01,2013-03-17 11:54:00,
2013-03-17 07:59:00,58.7,47.4,29.96,WSW,254,0.0,0.0,66,0.00,,---,0.00,VWS V14.01,2013-03-17 11:59:00,
2013-03-17 08:04:00,58.7,47.4,29.96,WSW,254,0.0,0.0,66,0.00,,---,0.00,VWS V14.01,2013-03-17 12:04:00,
2013-03-17 08:09:00,58.7,47.4,29.96,WSW,254,0.0,0.0,66,0.00,,---,0.00,VWS V14.01,2013-03-17 12:09:00,
2013-03-17 08:14:00,58.7,47.4,29.96,WSW,254,0.0,0.0,66,0.00,,---,0.00,VWS V14.01,2013-03-17 12:14:00,
2013-03-17 08:19:00,58.7,47.4,29.96,WSW,254,0.0,0.0,66,0.00,,---,0.00,VWS V14.01,2013-03-17 12:19:00,
2013-03-17 08:24:00,58.7,47.4,29.96,WSW,254,0.0,0.0,66,0.00,,---,0.00,VWS V14.01,2013-03-17 12:24:00,
2013-03-17 08:29:00,58.7,47.4,29.96,WSW,254,0.0,0.0,66,0.00,,---,0.00,VWS V14.01,2013-03-17 12:29:00,
2013-03-17 08:34:00,58.7,47.4,29.97,WSW,254,0.0,0.0,66,0.00,,---,0.00,VWS V14.01,2013-03-17 12:34:00,
2013-03-17 08:39:00,58.7,47.4,29.97,WSW,254,0.0,0.0,66,0.00,,---,0.00,VWS V14.01,2013-03-17 12:39:00,
2013-03-17 08:44:00,58.7,47.4,29.97,WSW,254,0.0,0.0,66,0.00,,---,0.00,VWS V14.01,2013-03-17 12:44:00,
2013-03-17 08:49:00,58.7,47.4,29.97,WSW,254,0.0,0.0,66,0.00,,---,0.00,VWS V14.01,2013-03-17 12:49:00,
2013-03-17 08:54:00,58.7,47.4,29.97,WSW,254,0.0,0.0,66,0.00,,---,0.00,VWS V14.01,2013-03-17 12:54:00,
2013-03-17 08:59:00,58.7,47.4,29.97,WSW,254,0.0,0.0,66,0.00,,---,0.00,VWS V14.01,2013-03-17 12:59:00,
2013-03-17 09:04:00,58.7,47.4,29.97,WSW,254,0.0,0.0,66,0.00,,---,0.00,VWS V14.01,2013-03-17 13:04:00,
2013-03-17 09:09:00,58.7,47.4,29.97,WSW,254,0.0,0.0,66,0.00,,---,0.00,VWS V14.01,2013-03-17 13:09:00,
2013-03-17 09:14:00,58.7,47.4,29.97,WSW,254,0.0,0.0,66,0.00,,---,0.00,VWS V14.01,2013-03-17 13:14:00,
2013-03-17 09:19:00,58.7,47.4,29.97,WSW,254,0.0,0.0,66,0.00,,---,0.00,VWS V14.01,2013-03-17 13:19:00,
2013-03-17 09:24:00,58.7,47.4,29.97,WSW,254,0.0,0.0,66,0.00,,---,0.00,VWS V14.01,2013-03-17 13:24:00,
2013-03-17 09:29:00,58.7,47.4,29.97,WSW,254,0.0,0.0,66,0.00,,---,0.00,VWS V14.01,2013-03-17 13:29:00,
2013-03-17 09:34:00,58.7,47.4,29.97,WSW,254,0.0,0.0,66,0.00,,---,0.00,VWS V14.01,2013-03-17 13:34:00,
2013-03-17 09:39:00,58.7,47.4,29.97,WSW,254,0.0,0.0,66,0.00,,---,0.00,VWS V14.01,2013-03-17 13:39:00,
2013-03-17 09:44:00,58.7,47.4,29.97,WSW,254,0.0,0.0,66,0.00,,---,0.00,VWS V14.01,2013-03-17 13:44:00,
2013-03-17 09:49:00,58.7,47.4,29.98,WSW,254,0.0,0.0,66,0.00,,---,0.00,VWS V14.01,2013-03-17 13:49:00,
2013-03-17 09:54:00,58.7,47.4,29.98,WSW,254,0.0,0.0,66,0.00,,---,0.00,VWS V14.01,2013-03-17 13:54:00,
2013-03-17 09:59:00,58.7,47.4,29.98,WSW,254,0.0,0.0,66,0.00,,---,0.00,VWS V14.01,2013-03-17 13:59:00,
2013-03-17 10:04:00,58.7,47.4,29.98,WSW,254,0.0,0.0,66,0.00,,---,0.00,VWS V14.01,2013-03-17 14:04:00,
2013-03-17 10:09:00,58.7,47.4,29.98,WSW,254,0.0,0.0,66,0.00,,---,0.00,VWS V14.01,2013-03-17 14:09:00,
2013-03-17 10:14:00,58.7,47.4,29.98,WSW,254,0.0,0.0,66,0.00,,---,0.00,VWS V14.01,2013-03-17 14:14:00,
2013-03-17 10:19:00,58.7,47.4,29.98,WSW,254,0.0,0.0,66,0.00,,---,0.00,VWS V14.01,2013-03-17 14:19:00,
2013-03-17 10:24:00,58.7,47.4,29.98,WSW,254,0.0,0.0,66,0.00,,---,0.00,VWS V14.01,2013-03-17 14:24:00,
2013-03-17 10:28:00,58.7,47.4,29.98,WSW,254,0.0,0.0,66,0.00,,---,0.00,VWS V14.01,2013-03-17 14:28:00,
2013-03-17 10:33:00,58.7,47.4,29.98,WSW,254,0.0,0.0,66,0.00,,---,0.00,VWS V14.01,2013-03-17 14:33:00,
2013-03-17 10:38:00,58.7,47.4,29.98,WSW,254,0.0,0.0,66,0.00,,---,0.00,VWS V14.01,2013-03-17 14:38:00,
2013-03-17 10:43:00,58.7,47.4,29.98,WSW,254,0.0,0.0,66,0.00,,---,0.00,VWS V14.01,2013-03-17 14:43:00,
2013-03-17 10:48:00,58.7,47.4,29.98,WSW,254,0.0,0.0,66,0.00,,---,0.00,VWS V14.01,2013-03-17 14:48:00,
2013-03-17 10:53:00,58.7,47.4,29.98,WSW,254,0.0,0.0,66,0.00,,---,0.00,VWS V14.01,2013-03-17 14:53:00,
2013-03-17 10:58:00,69.3,56.2,29.98,West,281,1.0,1.0,63,0.00,,---,0.00,VWS V14.01,2013-03-17 14:58:00,
2013-03-17 11:03:00,69.3,56.2,29.98,West,281,1.0,1.0,63,0.00,,---,0.00,VWS V14.01,2013-03-17 15:03:00,
2013-03-17 11:08:00,69.3,56.2,29.98,West,281,1.0,1.0,63,0.00,,---,0.00,VWS V14.01,2013-03-17 15:08:00,
2013-03-17 11:13:00,69.3,56.2,29.98,West,281,1.0,1.0,63,0.00,,---,0.00,VWS V14.01,2013-03-17 15:13:00,
2013-03-17 11:18:00,69.3,56.2,29.98,West,281,1.0,1.0,63,0.00,,---,0.00,VWS V14.01,2013-03-17 15:18:00,
2013-03-17 11:23:00,69.3,56.2,29.98,West,281,1.0,1.0,63,0.00,,---,0.00,VWS V14.01,2013-03-17 15:23:00,
2013-03-17 11:28:00,69.3,56.2,29.98,West,281,1.0,1.0,63,0.00,,---,0.00,VWS V14.01,2013-03-17 15:28:00,
2013-03-17 11:33:00,71.3,56.2,29.98,West,280,4.0,4.0,59,0.00,,---,0.00,VWS V14.01,2013-03-17 15:33:00,
2013-03-17 11:38:00,71.3,56.2,29.98,West,280,4.0,4.0,59,0.00,,---,0.00,VWS V14.01,2013-03-17 15:38:00,
2013-03-17 11:43:00,71.3,56.2,29.98,West,280,4.0,4.0,59,0.00,,---,0.00,VWS V14.01,2013-03-17 15:43:00,
2013-03-17 11:48:00,71.3,56.2,29.98,West,280,4.0,4.0,59,0.00,,---,0.00,VWS V14.01,2013-03-17 15:48:00,
2013-03-17 11:53:00,71.3,56.2,29.98,West,280,4.0,4.0,59,0.00,,---,0.00,VWS V14.01,2013-03-17 15:53:00,
2013-03-17 11:58:00,71.3,56.2,29.98,West,280,4.0,4.0,59,0.00,,---,0.00,VWS V14.01,2013-03-17 15:58:00,
2013-03-17 12:03:00,71.3,56.2,29.98,West,280,4.0,4.0,59,0.00,,---,0.00,VWS V14.01,2013-03-17 16:03:00,
2013-03-17 12:08:00,71.3,56.2,29.98,West,280,4.0,4.0,59,0.00,,---,0.00,VWS V14.01,2013-03-17 16:08:00,
2013-03-17 12:13:00,71.3,56.2,29.98,West,280,4.0,4.0,59,0.00,,---,0.00,VWS V14.01,2013-03-17 16:13:00,
2013-03-17 12:18:00,71.3,56.2,29.98,West,280,4.0,4.0,59,0.00,,---,0.00,VWS V14.01,2013-03-17 16:18:00,
2013-03-17 12:23:00,71.3,56.2,29.98,West,280,4.0,4.0,59,0.00,,---,0.00,VWS V14.01,2013-03-17 16:23:00,
2013-03-17 12:28:00,71.3,56.2,29.98,West,280,4.0,4.0,59,0.00,,---,0.00,VWS V14.01,2013-03-17 16:28:00,
2013-03-17 12:33:00,71.3,56.2,29.98,West,280,4.0,4.0,59,0.00,,---,0.00,VWS V14.01,2013-03-17 16:33:00,
2013-03-17 12:38:00,71.3,56.2,29.98,West,280,4.0,4.0,59,0.00,,---,0.00,VWS V14.01,2013-03-17 16:38:00,
2013-03-17 12:43:00,75.4,55.5,29.96,West,271,3.0,4.0,50,0.00,,---,0.00,VWS V14.01,2013-03-17 16:43:00,
2013-03-17 12:48:00,75.4,55.5,29.96,West,271,3.0,4.0,50,0.00,,---,0.00,VWS V14.01,2013-03-17 16:48:00,
2013-03-17 12:53:00,75.9,56.0,29.95,SW,232,3.0,4.0,50,0.00,,---,0.00,VWS V14.01,2013-03-17 16:53:00,
2013-03-17 12:58:00,75.9,56.0,29.95,SW,232,3.0,4.0,50,0.00,,---,0.00,VWS V14.01,2013-03-17 16:58:00,
2013-03-17 13:03:00,75.9,56.0,29.95,SW,232,3.0,4.0,50,0.00,,---,0.00,VWS V14.01,2013-03-17 17:03:00,
2013-03-17 13:08:00,75.9,56.0,29.95,SW,232,3.0,4.0,50,0.00,,---,0.00,VWS V14.01,2013-03-17 17:08:00,
2013-03-17 13:13:00,75.9,56.0,29.95,SW,232,3.0,4.0,50,0.00,,---,0.00,VWS V14.01,2013-03-17 17:13:00,
2013-03-17 13:18:00,75.9,56.0,29.95,SW,232,3.0,4.0,50,0.00,,---,0.00,VWS V14.01,2013-03-17 17:18:00,
2013-03-17 13:23:00,77.5,55.7,29.95,WSW,248,3.0,4.0,47,0.00,,---,0.00,VWS V14.01,2013-03-17 17:23:00,
2013-03-17 13:28:00,77.5,55.7,29.95,WSW,248,3.0,4.0,47,0.00,,---,0.00,VWS V14.01,2013-03-17 17:28:00,
2013-03-17 13:33:00,77.5,55.7,29.95,WSW,248,3.0,4.0,47,0.00,,---,0.00,VWS V14.01,2013-03-17 17:33:00,
2013-03-17 13:38:00,77.5,55.7,29.95,WSW,248,3.0,4.0,47,0.00,,---,0.00,VWS V14.01,2013-03-17 17:38:00,
2013-03-17 13:43:00,77.5,55.7,29.95,WSW,248,3.0,4.0,47,0.00,,---,0.00,VWS V14.01,2013-03-17 17:43:00,
2013-03-17 13:48:00,77.5,55.7,29.95,WSW,248,3.0,4.0,47,0.00,,---,0.00,VWS V14.01,2013-03-17 17:48:00,
2013-03-17 13:53:00,77.5,55.7,29.95,WSW,248,3.0,4.0,47,0.00,,---,0.00,VWS V14.01,2013-03-17 17:53:00,
2013-03-17 13:58:00,77.5,55.7,29.95,WSW,248,3.0,4.0,47,0.00,,---,0.00,VWS V14.01,2013-03-17 17:58:00,
2013-03-17 14:03:00,77.5,55.7,29.95,WSW,248,3.0,4.0,47,0.00,,---,0.00,VWS V14.01,2013-03-17 18:03:00,
2013-03-17 14:08:00,77.5,55.7,29.95,WSW,248,3.0,4.0,47,0.00,,---,0.00,VWS V14.01,2013-03-17 18:08:00,
2013-03-17 14:13:00,77.5,55.7,29.95,WSW,248,3.0,4.0,47,0.00,,---,0.00,VWS V14.01,2013-03-17 18:13:00,
2013-03-17 14:18:00,72.4,59.1,29.93,ESE,122,3.0,4.0,63,0.00,,---,0.00,VWS V14.01,2013-03-17 18:18:00,
2013-03-17 14:23:00,72.4,59.1,29.93,ESE,122,3.0,4.0,63,0.00,,---,0.00,VWS V14.01,2013-03-17 18:23:00,
2013-03-17 14:28:00,72.4,59.1,29.93,ESE,122,3.0,4.0,63,0.00,,---,0.00,VWS V14.01,2013-03-17 18:28:00,
2013-03-17 14:33:00,72.4,59.1,29.93,ESE,122,3.0,4.0,63,0.00,,---,0.00,VWS V14.01,2013-03-17 18:33:00,
2013-03-17 14:38:00,72.4,59.1,29.93,ESE,122,3.0,4.0,63,0.00,,---,0.00,VWS V14.01,2013-03-17 18:38:00,
2013-03-17 14:43:00,72.4,59.1,29.93,ESE,122,3.0,4.0,63,0.00,,---,0.00,VWS V14.01,2013-03-17 18:43:00,
2013-03-17 14:48:00,72.4,59.1,29.93,ESE,122,3.0,4.0,63,0.00,,---,0.00,VWS V14.01,2013-03-17 18:48:00,
2013-03-17 14:53:00,72.4,59.1,29.93,ESE,122,3.0,4.0,63,0.00,,---,0.00,VWS V14.01,2013-03-17 18:53:00,
2013-03-17 14:58:00,72.4,59.1,29.93,ESE,122,3.0,4.0,63,0.00,,---,0.00,VWS V14.01,2013-03-17 18:58:00,
2013-03-17 15:03:00,72.4,59.1,29.93,ESE,122,3.0,4.0,63,0.00,,---,0.00,VWS V14.01,2013-03-17 19:03:00,
2013-03-17 15:08:00,72.4,59.1,29.93,ESE,122,3.0,4.0,63,0.00,,---,0.00,VWS V14.01,2013-03-17 19:08:00,
2013-03-17 15:13:00,72.4,59.1,29.93,ESE,122,3.0,4.0,63,0.00,,---,0.00,VWS V14.01,2013-03-17 19:13:00,
2013-03-17 15:18:00,72.4,59.1,29.93,ESE,122,3.0,4.0,63,0.00,,---,0.00,VWS V14.01,2013-03-17 19:18:00,
2013-03-17 15:23:00,72.4,59.1,29.93,ESE,122,3.0,4.0,63,0.00,,---,0.00,VWS V14.01,2013-03-17 19:23:00,
2013-03-17 15:28:00,72.4,59.1,29.93,ESE,122,3.0,4.0,63,0.00,,---,0.00,VWS V14.01,2013-03-17 19:28:00,
2013-03-17 15:33:00,70.2,60.0,29.91,SE,134,0.0,4.0,70,0.00,,---,0.00,VWS V14.01,2013-03-17 19:33:00,
2013-03-17 15:38:00,70.2,60.0,29.91,SE,134,0.0,4.0,70,0.00,,---,0.00,VWS V14.01,2013-03-17 19:38:00,
2013-03-17 15:43:00,70.2,60.0,29.91,SE,134,0.0,4.0,70,0.00,,---,0.00,VWS V14.01,2013-03-17 19:43:00,
2013-03-17 15:48:00,70.2,60.0,29.91,SE,134,0.0,4.0,70,0.00,,---,0.00,VWS V14.01,2013-03-17 19:48:00,
2013-03-17 15:53:00,70.2,60.0,29.91,SE,134,0.0,4.0,70,0.00,,---,0.00,VWS V14.01,2013-03-17 19:53:00,
2013-03-17 15:58:00,70.2,60.0,29.91,SE,134,0.0,4.0,70,0.00,,---,0.00,VWS V14.01,2013-03-17 19:58:00,
2013-03-17 16:03:00,70.2,60.0,29.91,SE,134,0.0,4.0,70,0.00,,---,0.00,VWS V14.01,2013-03-17 20:03:00,
2013-03-17 16:08:00,70.2,60.0,29.91,SE,134,0.0,4.0,70,0.00,,---,0.00,VWS V14.01,2013-03-17 20:08:00,
2013-03-17 16:13:00,70.2,60.0,29.91,SE,134,0.0,4.0,70,0.00,,---,0.00,VWS V14.01,2013-03-17 20:13:00,
2013-03-17 16:18:00,70.2,60.0,29.91,SE,134,0.0,4.0,70,0.00,,---,0.00,VWS V14.01,2013-03-17 20:18:00,
2013-03-17 16:23:00,70.2,60.0,29.91,SE,134,0.0,4.0,70,0.00,,---,0.00,VWS V14.01,2013-03-17 20:23:00,
2013-03-17 16:28:00,70.2,60.0,29.91,SE,134,0.0,4.0,70,0.00,,---,0.00,VWS V14.01,2013-03-17 20:28:00,
2013-03-17 16:33:00,70.2,60.0,29.91,SE,134,0.0,4.0,70,0.00,,---,0.00,VWS V14.01,2013-03-17 20:33:00,
2013-03-17 16:38:00,70.2,60.0,29.91,SE,134,0.0,4.0,70,0.00,,---,0.00,VWS V14.01,2013-03-17 20:38:00,
2013-03-17 16:43:00,70.2,60.0,29.91,SE,134,0.0,4.0,70,0.00,,---,0.00,VWS V14.01,2013-03-17 20:43:00,
2013-03-17 16:48:00,69.5,60.1,29.91,NE,45,2.0,4.0,72,0.00,,---,0.00,VWS V14.01,2013-03-17 20:48:00,
2013-03-17 16:53:00,69.5,60.1,29.91,NE,45,2.0,4.0,72,0.00,,---,0.00,VWS V14.01,2013-03-17 20:53:00,
2013-03-17 16:58:00,69.5,60.1,29.91,NE,45,2.0,4.0,72,0.00,,---,0.00,VWS V14.01,2013-03-17 20:58:00,
2013-03-17 17:03:00,69.5,60.1,29.91,NE,45,2.0,4.0,72,0.00,,---,0.00,VWS V14.01,2013-03-17 21:03:00,
2013-03-17 17:08:00,69.5,60.1,29.91,NE,45,2.0,4.0,72,0.00,,---,0.00,VWS V14.01,2013-03-17 21:08:00,
2013-03-17 17:13:00,69.5,60.1,29.91,NE,45,2.0,4.0,72,0.00,,---,0.00,VWS V14.01,2013-03-17 21:13:00,
2013-03-17 17:18:00,69.7,59.5,29.91,SE,135,2.0,4.0,70,0.00,,---,0.00,VWS V14.01,2013-03-17 21:18:00,
2013-03-17 17:23:00,69.7,59.5,29.91,SE,135,2.0,4.0,70,0.00,,---,0.00,VWS V14.01,2013-03-17 21:23:00,
2013-03-17 17:28:00,69.7,59.5,29.91,SE,135,2.0,4.0,70,0.00,,---,0.00,VWS V14.01,2013-03-17 21:28:00,
2013-03-17 17:33:00,69.7,59.5,29.91,SE,135,2.0,4.0,70,0.00,,---,0.00,VWS V14.01,2013-03-17 21:33:00,
2013-03-17 17:38:00,69.7,59.5,29.91,SE,135,2.0,4.0,70,0.00,,---,0.00,VWS V14.01,2013-03-17 21:38:00,
2013-03-17 17:43:00,69.7,59.5,29.91,SE,135,2.0,4.0,70,0.00,,---,0.00,VWS V14.01,2013-03-17 21:43:00,
2013-03-17 17:48:00,69.7,59.5,29.91,SE,135,2.0,4.0,70,0.00,,---,0.00,VWS V14.01,2013-03-17 21:48:00,
2013-03-17 17:53:00,69.7,59.5,29.91,SE,135,2.0,4.0,70,0.00,,---,0.00,VWS V14.01,2013-03-17 21:53:00,
2013-03-17 17:58:00,69.7,59.5,29.91,SE,135,2.0,4.0,70,0.00,,---,0.00,VWS V14.01,2013-03-17 21:58:00,
2013-03-17 18:03:00,69.7,59.5,29.91,SE,135,2.0,4.0,70,0.00,,---,0.00,VWS V14.01,2013-03-17 22:03:00,
2013-03-17 18:08:00,69.7,59.5,29.91,SE,135,2.0,4.0,70,0.00,,---,0.00,VWS V14.01,2013-03-17 22:08:00,
2013-03-17 18:13:00,69.7,59.5,29.91,SE,135,2.0,4.0,70,0.00,,---,0.00,VWS V14.01,2013-03-17 22:13:00,
2013-03-17 18:18:00,69.7,59.5,29.91,SE,135,2.0,4.0,70,0.00,,---,0.00,VWS V14.01,2013-03-17 22:18:00,
2013-03-17 18:23:00,69.7,59.5,29.91,SE,135,2.0,4.0,70,0.00,,---,0.00,VWS V14.01,2013-03-17 22:23:00,
2013-03-17 18:28:00,69.7,59.5,29.91,SE,135,2.0,4.0,70,0.00,,---,0.00,VWS V14.01,2013-03-17 22:28:00,
2013-03-17 18:33:00,69.8,58.8,29.93,SW,229,0.0,4.0,68,0.00,,---,0.00,VWS V14.01,2013-03-17 22:33:00,
2013-03-17 18:38:00,69.8,58.8,29.93,SW,229,0.0,4.0,68,0.00,,---,0.00,VWS V14.01,2013-03-17 22:38:00,
2013-03-17 18:43:00,69.8,58.8,29.93,SW,229,0.0,4.0,68,0.00,,---,0.00,VWS V14.01,2013-03-17 22:43:00,
2013-03-17 18:48:00,69.8,58.8,29.93,SW,229,0.0,4.0,68,0.00,,---,0.00,VWS V14.01,2013-03-17 22:48:00,
2013-03-17 18:53:00,69.8,58.8,29.93,SW,229,0.0,4.0,68,0.00,,---,0.00,VWS V14.01,2013-03-17 22:53:00,
2013-03-17 18:58:00,69.8,58.8,29.93,SW,229,0.0,4.0,68,0.00,,---,0.00,VWS V14.01,2013-03-17 22:58:00,
2013-03-17 19:03:00,69.8,58.8,29.93,SW,229,0.0,4.0,68,0.00,,---,0.00,VWS V14.01,2013-03-17 23:03:00,
2013-03-17 19:08:00,69.8,58.8,29.93,SW,229,0.0,4.0,68,0.00,,---,0.00,VWS V14.01,2013-03-17 23:08:00,
2013-03-17 19:13:00,69.8,58.8,29.93,SW,229,0.0,4.0,68,0.00,,---,0.00,VWS V14.01,2013-03-17 23:13:00,
2013-03-17 19:18:00,69.8,58.8,29.93,SW,229,0.0,4.0,68,0.00,,---,0.00,VWS V14.01,2013-03-17 23:18:00,
2013-03-17 19:23:00,66.8,50.1,29.94,WSW,238,0.0,4.0,55,0.00,,---,0.00,VWS V14.01,2013-03-17 23:23:00,
2013-03-17 19:28:00,66.8,50.1,29.94,WSW,238,0.0,4.0,55,0.00,,---,0.00,VWS V14.01,2013-03-17 23:28:00,
2013-03-17 19:33:00,66.8,50.1,29.94,WSW,238,0.0,4.0,55,0.00,,---,0.00,VWS V14.01,2013-03-17 23:33:00,
2013-03-17 19:38:00,66.8,50.1,29.94,WSW,238,0.0,4.0,55,0.00,,---,0.00,VWS V14.01,2013-03-17 23:38:00,
2013-03-17 19:43:00,66.8,50.1,29.94,WSW,238,0.0,4.0,55,0.00,,---,0.00,VWS V14.01,2013-03-17 23:43:00,
2013-03-17 19:48:00,66.8,50.1,29.94,WSW,238,0.0,4.0,55,0.00,,---,0.00,VWS V14.01,2013-03-17 23:48:00,
2013-03-17 19:53:00,66.8,50.1,29.94,WSW,238,0.0,4.0,55,0.00,,---,0.00,VWS V14.01,2013-03-17 23:53:00,
2013-03-17 19:58:00,66.8,50.1,29.94,WSW,238,0.0,4.0,55,0.00,,---,0.00,VWS V14.01,2013-03-17 23:58:00,
2013-03-17 20:03:00,66.8,50.1,29.94,WSW,238,0.0,4.0,55,0.00,,---,0.00,VWS V14.01,2013-03-18 00:03:00,
2013-03-17 20:08:00,66.8,50.1,29.94,WSW,238,0.0,4.0,55,0.00,,---,0.00,VWS V14.01,2013-03-18 00:08:00,
2013-03-17 20:13:00,66.8,50.1,29.94,WSW,238,0.0,4.0,55,0.00,,---,0.00,VWS V14.01,2013-03-18 00:13:00,
2013-03-17 20:18:00,66.8,50.1,29.94,WSW,238,0.0,4.0,55,0.00,,---,0.00,VWS V14.01,2013-03-18 00:18:00,
2013-03-17 20:23:00,66.8,50.1,29.94,WSW,238,0.0,4.0,55,0.00,,---,0.00,VWS V14.01,2013-03-18 00:23:00,
2013-03-17 20:28:00,66.8,50.1,29.94,WSW,238,0.0,4.0,55,0.00,,---,0.00,VWS V14.01,2013-03-18 00:28:00,
2013-03-17 20:33:00,66.8,50.1,29.94,WSW,238,0.0,4.0,55,0.00,,---,0.00,VWS V14.01,2013-03-18 00:33:00,
2013-03-17 20:38:00,65.2,49.6,29.97,WSW,239,0.0,4.0,57,0.00,,---,0.00,VWS V14.01,2013-03-18 00:38:00,
2013-03-17 20:43:00,65.0,49.9,29.97,SW,231,0.0,4.0,58,0.00,,---,0.00,VWS V14.01,2013-03-18 00:43:00,
2013-03-17 20:48:00,65.0,49.9,29.97,SW,231,0.0,4.0,58,0.00,,---,0.00,VWS V14.01,2013-03-18 00:48:00,
2013-03-17 20:53:00,64.8,49.7,29.97,WSW,253,0.0,4.0,58,0.00,,---,0.00,VWS V14.01,2013-03-18 00:53:00,
2013-03-17 20:58:00,64.5,49.9,29.98,WSW,252,0.0,4.0,59,0.00,,---,0.00,VWS V14.01,2013-03-18 00:58:00,
2013-03-17 21:03:00,64.5,49.9,29.98,WSW,252,0.0,4.0,59,0.00,,---,0.00,VWS V14.01,2013-03-18 01:03:00,
2013-03-17 21:08:00,64.5,49.9,29.98,WSW,252,0.0,4.0,59,0.00,,---,0.00,VWS V14.01,2013-03-18 01:08:00,
2013-03-17 21:13:00,64.5,49.9,29.98,WSW,252,0.0,4.0,59,0.00,,---,0.00,VWS V14.01,2013-03-18 01:13:00,
2013-03-17 21:18:00,64.1,49.5,29.99,WSW,241,0.0,4.0,59,0.00,,---,0.00,VWS V14.01,2013-03-18 01:18:00,
2013-03-17 21:23:00,64.1,49.5,29.99,WSW,241,0.0,4.0,59,0.00,,---,0.00,VWS V14.01,2013-03-18 01:23:00,
2013-03-17 21:28:00,64.1,49.5,29.99,WSW,241,0.0,4.0,59,0.00,,---,0.00,VWS V14.01,2013-03-18 01:28:00,
2013-03-17 21:33:00,64.1,49.5,29.99,WSW,241,0.0,4.0,59,0.00,,---,0.00,VWS V14.01,2013-03-18 01:33:00,
2013-03-17 21:38:00,64.1,49.5,29.99,WSW,241,0.0,4.0,59,0.00,,---,0.00,VWS V14.01,2013-03-18 01:38:00,
2013-03-17 21:43:00,64.1,49.5,29.99,WSW,241,0.0,4.0,59,0.00,,---,0.00,VWS V14.01,2013-03-18 01:43:00,
2013-03-17 21:48:00,64.1,49.5,29.99,WSW,241,0.0,4.0,59,0.00,,---,0.00,VWS V14.01,2013-03-18 01:48:00,
2013-03-17 21:53:00,64.1,49.5,29.99,WSW,241,0.0,4.0,59,0.00,,---,0.00,VWS V14.01,2013-03-18 01:53:00,
2013-03-17 21:58:00,64.1,49.5,29.99,WSW,241,0.0,4.0,59,0.00,,---,0.00,VWS V14.01,2013-03-18 01:58:00,
2013-03-17 22:03:00,63.6,49.5,29.99,SW,229,0.0,4.0,60,0.00,,---,0.00,VWS V14.01,2013-03-18 02:03:00,
2013-03-17 22:08:00,63.6,49.5,29.99,SW,229,0.0,4.0,60,0.00,,---,0.00,VWS V14.01,2013-03-18 02:08:00,
2013-03-17 22:13:00,63.6,49.5,29.99,SW,229,0.0,4.0,60,0.00,,---,0.00,VWS V14.01,2013-03-18 02:13:00,
2013-03-17 22:18:00,63.6,49.5,29.99,SW,229,0.0,4.0,60,0.00,,---,0.00,VWS V14.01,2013-03-18 02:18:00,
2013-03-17 22:23:00,63.6,49.5,29.99,SW,229,0.0,4.0,60,0.00,,---,0.00,VWS V14.01,2013-03-18 02:23:00,
2013-03-17 22:28:00,63.5,49.4,30.00,WSW,238,0.0,4.0,60,0.00,,---,0.00,VWS V14.01,2013-03-18 02:28:00,
2013-03-17 22:33:00,63.5,49.4,30.00,WSW,238,0.0,4.0,60,0.00,,---,0.00,VWS V14.01,2013-03-18 02:33:00,
2013-03-17 22:38:00,63.5,49.4,30.00,WSW,238,0.0,4.0,60,0.00,,---,0.00,VWS V14.01,2013-03-18 02:38:00,
2013-03-17 22:43:00,63.5,49.4,30.00,WSW,238,0.0,4.0,60,0.00,,---,0.00,VWS V14.01,2013-03-18 02:43:00,
2013-03-17 22:48:00,63.5,49.4,30.00,WSW,238,0.0,4.0,60,0.00,,---,0.00,VWS V14.01,2013-03-18 02:48:00,
2013-03-17 22:53:00,63.5,49.4,30.00,WSW,238,0.0,4.0,60,0.00,,---,0.00,VWS V14.01,2013-03-18 02:53:00,
2013-03-17 22:58:00,63.5,49.4,30.00,WSW,238,0.0,4.0,60,0.00,,---,0.00,VWS V14.01,2013-03-18 02:58:00,
2013-03-17 23:03:00,63.5,49.4,30.00,WSW,238,0.0,4.0,60,0.00,,---,0.00,VWS V14.01,2013-03-18 03:03:00,
2013-03-17 23:07:00,63.5,49.4,30.00,WSW,238,0.0,4.0,60,0.00,,---,0.00,VWS V14.01,2013-03-18 03:07:00,
2013-03-17 23:12:00,63.5,49.4,30.00,WSW,238,0.0,4.0,60,0.00,,---,0.00,VWS V14.01,2013-03-18 03:12:00,
2013-03-17 23:17:00,63.5,49.4,30.00,WSW,238,0.0,4.0,60,0.00,,---,0.00,VWS V14.01,2013-03-18 03:17:00,
2013-03-17 23:22:00,63.5,49.4,30.00,WSW,238,0.0,4.0,60,0.00,,---,0.00,VWS V14.01,2013-03-18 03:22:00,
2013-03-17 23:27:00,63.5,49.4,30.00,WSW,238,0.0,4.0,60,0.00,,---,0.00,VWS V14.01,2013-03-18 03:27:00,
2013-03-17 23:32:00,63.5,49.4,30.00,WSW,238,0.0,4.0,60,0.00,,---,0.00,VWS V14.01,2013-03-18 03:32:00,
2013-03-17 23:37:00,63.5,49.4,30.00,WSW,238,0.0,4.0,60,0.00,,---,0.00,VWS V14.01,2013-03-18 03:37:00,
2013-03-17 23:42:00,63.4,49.3,30.02,WSW,257,0.0,4.0,60,0.00,,---,0.00,VWS V14.01,2013-03-18 03:42:00,
2013-03-17 23:47:00,63.4,49.3,30.02,WSW,257,0.0,4.0,60,0.00,,---,0.00,VWS V14.01,2013-03-18 03:47:00,
2013-03-17 23:52:00,63.4,49.3,30.02,WSW,257,0.0,4.0,60,0.00,,---,0.00,VWS V14.01,2013-03-18 03:52:00,
2013-03-17 23:57:00,63.4,49.3,30.02,WSW,257,0.0,4.0,60,0.00,,---,0.00,VWS V14.01,2013-03-18 03:57:00,